Time;durP1;ratioP1;P1;durP2;ratioP2;P2;SDS_P1;SDS_P2;PMS_P1;PMS_P2;Temp;Humidity;BMP_temperature;BMP_pressure;BME280_temperature;BME280_humidity;BME280_pressure;Samples;Min_cycle;Max_cycle;Signal;HPM_P1;HPM_P2
2022/08/06 00:02:23;;;;;;;;;;;26.50;43.10;;;;;;5043839;28;19917;-62
2022/08/06 00:04:48;;;;;;;;;;;26.50;42.50;;;;;;5046729;28;19917;-62
2022/08/06 00:07:14;;;;;;;;;;;26.50;43.00;;;;;;5049310;28;19978;-61
2022/08/06 00:09:39;;;;;;;;;;;26.50;42.30;;;;;;5046687;28;19920;-62
2022/08/06 00:12:05;;;;;;;;;;;26.50;42.30;;;;;;5049609;28;19923;-62
2022/08/06 00:14:31;;;;;;;;;;;26.50;42.40;;;;;;5042681;28;20011;-62
2022/08/06 00:16:57;;;;;;;;;;;26.40;42.40;;;;;;5048131;28;19943;-62
2022/08/06 00:19:22;;;;;;;;;;;26.50;42.50;;;;;;5046470;28;19921;-62
2022/08/06 00:21:48;;;;;;;;;;;26.40;42.50;;;;;;5047958;28;20384;-61
2022/08/06 00:24:13;;;;;;;;;;;26.40;42.40;;;;;;5045995;28;19913;-61
2022/08/06 00:26:39;;;;;;;;;;;26.50;42.40;;;;;;5046083;28;19917;-61
2022/08/06 00:29:04;;;;;;;;;;;26.50;42.30;;;;;;5046994;28;20054;-62
2022/08/06 00:31:30;;;;;;;;;;;26.50;42.40;;;;;;5047056;28;20320;-61
2022/08/06 00:33:56;;;;;;;;;;;26.50;42.40;;;;;;5044914;28;20395;-62
2022/08/06 00:36:22;;;;;;;;;;;26.40;42.50;;;;;;5045364;28;20396;-62
2022/08/06 00:38:47;;;;;;;;;;;26.40;42.50;;;;;;5046242;28;20037;-62
2022/08/06 00:41:14;;;;;;;;;;;26.40;42.60;;;;;;5045263;28;19913;-62
2022/08/06 00:43:40;;;;;;;;;;;26.40;42.60;;;;;;5048005;28;20038;-62
2022/08/06 00:46:06;;;;;;;;;;;26.30;42.70;;;;;;5047368;28;19952;-62
2022/08/06 00:48:31;;;;;;;;;;;26.40;42.70;;;;;;5044253;28;20025;-62
2022/08/06 00:50:57;;;;;;;;;;;26.40;42.70;;;;;;5044278;28;20369;-62
2022/08/06 00:53:22;;;;;;;;;;;26.40;42.80;;;;;;5047542;28;19990;-62
2022/08/06 00:55:47;;;;;;;;;;;26.40;42.90;;;;;;5046057;28;19916;-62
2022/08/06 00:58:13;;;;;;;;;;;26.30;42.70;;;;;;5048725;28;19913;-62
2022/08/06 01:00:38;;;;;;;;;;;26.40;42.70;;;;;;5045774;28;19912;-62
2022/08/06 01:03:04;;;;;;;;;;;26.40;42.70;;;;;;5044007;28;19923;-62
2022/08/06 01:05:29;;;;;;;;;;;26.40;42.80;;;;;;5047431;28;20305;-62
2022/08/06 01:07:55;;;;;;;;;;;26.40;42.90;;;;;;5037704;28;19956;-62
2022/08/06 01:10:22;;;;;;;;;;;26.40;42.90;;;;;;5047440;28;19913;-62
2022/08/06 01:12:47;;;;;;;;;;;26.40;42.90;;;;;;5046628;28;19927;-62
2022/08/06 01:15:12;;;;;;;;;;;26.40;43.60;;;;;;5045891;28;19913;-62
2022/08/06 01:17:47;;;;;;;;;;;26.30;43.00;;;;;;5044383;28;19919;-62
2022/08/06 01:20:34;;;;;;;;;;;26.30;43.10;;;;;;5046605;28;19917;-62
2022/08/06 01:23:05;;;;;;;;;;;26.30;43.00;;;;;;5043169;28;19936;-62
2022/08/06 01:25:43;;;;;;;;;;;26.30;43.20;;;;;;5041928;28;19924;-62
2022/08/06 01:28:23;;;;;;;;;;;26.30;43.20;;;;;;5051572;28;19963;-62
2022/08/06 01:30:52;;;;;;;;;;;26.30;43.20;;;;;;5050544;28;19920;-62
2022/08/06 01:33:20;;;;;;;;;;;26.30;43.20;;;;;;5051234;28;19920;-62
2022/08/06 01:35:47;;;;;;;;;;;26.30;43.20;;;;;;5049817;28;19925;-62
2022/08/06 01:38:23;;;;;;;;;;;26.30;43.10;;;;;;5050426;28;20322;-61
2022/08/06 01:40:49;;;;;;;;;;;26.30;43.00;;;;;;5048109;28;19928;-62
2022/08/06 01:43:15;;;;;;;;;;;26.30;43.10;;;;;;5044765;28;19917;-62
2022/08/06 01:45:40;;;;;;;;;;;26.30;43.20;;;;;;5050928;28;20372;-62
2022/08/06 01:48:08;;;;;;;;;;;26.30;43.20;;;;;;5049070;28;19962;-62
2022/08/06 01:50:35;;;;;;;;;;;26.30;43.20;;;;;;5051234;28;19913;-62
2022/08/06 01:53:01;;;;;;;;;;;26.30;43.00;;;;;;5049339;28;19920;-62
2022/08/06 01:55:27;;;;;;;;;;;26.30;43.00;;;;;;5051889;28;19913;-62
2022/08/06 01:57:53;;;;;;;;;;;26.30;43.10;;;;;;5047435;28;19920;-62
2022/08/06 02:00:19;;;;;;;;;;;26.20;43.10;;;;;;5047609;28;20280;-62
2022/08/06 02:02:44;;;;;;;;;;;26.20;43.10;;;;;;5049743;28;19917;-62
2022/08/06 02:05:10;;;;;;;;;;;26.20;43.20;;;;;;5051570;28;20000;-61
2022/08/06 02:07:37;;;;;;;;;;;26.20;43.30;;;;;;5050854;28;19917;-62
2022/08/06 02:10:03;;;;;;;;;;;26.20;43.20;;;;;;5049605;28;19913;-61
2022/08/06 02:12:28;;;;;;;;;;;26.20;43.10;;;;;;5051820;28;19920;-61
2022/08/06 02:14:54;;;;;;;;;;;26.20;43.00;;;;;;5044704;28;20277;-62
2022/08/06 02:17:20;;;;;;;;;;;26.20;43.00;;;;;;5048049;28;19921;-62
2022/08/06 02:19:47;;;;;;;;;;;26.20;43.00;;;;;;5050551;28;19925;-62
2022/08/06 02:22:12;;;;;;;;;;;26.20;43.10;;;;;;5050598;28;19994;-62
2022/08/06 02:24:38;;;;;;;;;;;26.30;43.00;;;;;;5049616;28;19914;-62
2022/08/06 02:27:03;;;;;;;;;;;26.30;43.00;;;;;;5048987;28;20381;-62
2022/08/06 02:29:29;;;;;;;;;;;26.30;43.10;;;;;;5050934;28;20410;-62
2022/08/06 02:31:54;;;;;;;;;;;26.20;43.00;;;;;;5043481;28;19921;-62
2022/08/06 02:34:20;;;;;;;;;;;26.20;43.10;;;;;;5050930;28;20385;-61
2022/08/06 02:36:48;;;;;;;;;;;26.20;43.20;;;;;;5046296;28;20016;-61
2022/08/06 02:39:14;;;;;;;;;;;26.20;43.10;;;;;;5049194;28;19913;-62
2022/08/06 02:41:41;;;;;;;;;;;26.20;43.20;;;;;;5049122;28;20012;-62
2022/08/06 02:44:14;;;;;;;;;;;26.20;43.40;;;;;;5051009;28;19934;-62
2022/08/06 02:46:43;;;;;;;;;;;26.20;43.40;;;;;;5047609;28;19913;-62
2022/08/06 02:49:12;;;;;;;;;;;26.20;43.30;;;;;;5043030;28;19913;-61
2022/08/06 02:51:39;;;;;;;;;;;26.10;43.30;;;;;;5050261;28;20035;-62
2022/08/06 02:54:10;;;;;;;;;;;26.10;43.30;;;;;;5044152;28;19913;-61
2022/08/06 02:56:36;;;;;;;;;;;26.10;43.40;;;;;;5046626;28;19927;-61
2022/08/06 02:59:01;;;;;;;;;;;26.10;43.50;;;;;;5047355;28;19912;-61
2022/08/06 03:01:32;;;;;;;;;;;26.10;43.50;;;;;;5063762;28;19917;-62
2022/08/06 03:03:57;;;;;;;;;;;26.10;43.50;;;;;;5067735;28;19924;-62
2022/08/06 03:06:23;;;;;;;;;;;26.10;43.60;;;;;;5043540;28;19920;-62
2022/08/06 03:08:49;;;;;;;;;;;26.10;43.60;;;;;;5046422;28;20304;-62
2022/08/06 03:11:14;;;;;;;;;;;26.10;43.40;;;;;;5047596;28;19916;-62
2022/08/06 03:13:40;;;;;;;;;;;26.10;43.50;;;;;;5062710;28;19978;-62
2022/08/06 03:16:05;;;;;;;;;;;26.10;43.60;;;;;;5061726;28;19923;-62
2022/08/06 03:18:31;;;;;;;;;;;26.10;43.50;;;;;;5049561;28;19931;-62
2022/08/06 03:20:57;;;;;;;;;;;26.10;43.50;;;;;;5047173;28;20458;-62
2022/08/06 03:23:22;;;;;;;;;;;26.00;43.50;;;;;;5044293;28;19924;-62
2022/08/06 03:25:47;;;;;;;;;;;26.00;43.30;;;;;;5047584;28;20030;-61
2022/08/06 03:28:13;;;;;;;;;;;26.10;43.40;;;;;;5045696;28;19913;-62
2022/08/06 03:30:38;;;;;;;;;;;26.00;43.30;;;;;;5049105;28;20396;-62
2022/08/06 03:33:05;;;;;;;;;;;26.10;43.30;;;;;;5049223;28;19923;-62
2022/08/06 03:35:30;;;;;;;;;;;26.00;43.30;;;;;;5050143;28;20387;-62
2022/08/06 03:37:56;;;;;;;;;;;26.10;43.40;;;;;;5049528;28;19978;-62
2022/08/06 03:40:21;;;;;;;;;;;26.10;43.40;;;;;;5046965;28;19924;-62
2022/08/06 03:42:47;;;;;;;;;;;26.00;44.10;;;;;;5046813;28;20299;-61
2022/08/06 03:45:12;;;;;;;;;;;26.00;43.30;;;;;;5048840;28;19916;-62
2022/08/06 03:47:40;;;;;;;;;;;26.10;43.20;;;;;;5045486;28;20459;-62
2022/08/06 03:50:15;;;;;;;;;;;26.10;43.30;;;;;;5045170;28;19959;-62
2022/08/06 03:52:46;;;;;;;;;;;26.00;43.30;;;;;;5061098;28;20003;-61
2022/08/06 03:55:13;;;;;;;;;;;26.00;43.30;;;;;;5044437;28;19917;-62
2022/08/06 03:57:40;;;;;;;;;;;26.00;43.30;;;;;;5039775;28;19916;-62
2022/08/06 04:00:07;;;;;;;;;;;26.00;43.30;;;;;;5046181;28;19977;-62
2022/08/06 04:02:34;;;;;;;;;;;26.00;43.30;;;;;;5048503;28;19917;-62
2022/08/06 04:04:59;;;;;;;;;;;26.00;43.30;;;;;;5029353;28;19917;-61
2022/08/06 04:07:25;;;;;;;;;;;26.00;43.50;;;;;;5047783;28;20277;-62
2022/08/06 04:09:51;;;;;;;;;;;26.00;43.50;;;;;;5045780;28;19913;-62
2022/08/06 04:12:16;;;;;;;;;;;25.90;43.50;;;;;;5044157;28;19920;-62
2022/08/06 04:14:42;;;;;;;;;;;25.90;43.70;;;;;;5044466;28;19925;-62
2022/08/06 04:17:07;;;;;;;;;;;25.90;43.70;;;;;;5048609;28;19935;-62
2022/08/06 04:19:32;;;;;;;;;;;25.90;43.70;;;;;;5046308;28;20413;-62
2022/08/06 04:21:58;;;;;;;;;;;25.90;43.70;;;;;;5048125;28;19999;-62
2022/08/06 04:24:23;;;;;;;;;;;25.90;43.70;;;;;;5046896;28;19966;-62
2022/08/06 04:26:50;;;;;;;;;;;25.90;43.70;;;;;;5045503;28;20385;-61
2022/08/06 04:29:16;;;;;;;;;;;25.90;43.80;;;;;;5036797;28;19967;-62
2022/08/06 04:31:42;;;;;;;;;;;25.90;43.70;;;;;;5047260;28;20372;-61
2022/08/06 04:34:08;;;;;;;;;;;25.90;43.80;;;;;;5045114;28;20308;-62
2022/08/06 04:36:33;;;;;;;;;;;25.90;43.90;;;;;;5048888;28;19923;-62
2022/08/06 04:38:59;;;;;;;;;;;25.80;43.90;;;;;;5043405;28;20008;-62
2022/08/06 04:41:24;;;;;;;;;;;25.90;44.00;;;;;;5049249;28;20342;-62
2022/08/06 04:43:50;;;;;;;;;;;25.80;44.00;;;;;;5045310;28;19936;-62
2022/08/06 04:46:15;;;;;;;;;;;25.80;44.00;;;;;;5043518;28;19912;-62
2022/08/06 04:48:41;;;;;;;;;;;25.80;44.10;;;;;;5048826;28;19913;-62
2022/08/06 04:51:06;;;;;;;;;;;25.80;44.20;;;;;;5047400;28;19949;-62
2022/08/06 04:53:36;;;;;;;;;;;25.80;44.20;;;;;;5046534;28;19923;-62
2022/08/06 04:56:01;;;;;;;;;;;25.80;44.20;;;;;;5047733;28;20312;-61
2022/08/06 04:58:27;;;;;;;;;;;25.80;44.20;;;;;;5049551;28;19924;-61
2022/08/06 05:00:52;;;;;;;;;;;25.80;44.30;;;;;;5046633;28;20309;-62
2022/08/06 05:03:17;;;;;;;;;;;25.70;44.30;;;;;;5051127;28;19920;-62
2022/08/06 05:05:46;;;;;;;;;;;25.70;44.30;;;;;;5053197;28;20015;-62
2022/08/06 05:08:11;;;;;;;;;;;25.80;44.40;;;;;;5050680;28;20292;-61
2022/08/06 05:10:39;;;;;;;;;;;25.80;44.30;;;;;;5051580;28;19927;-61
2022/08/06 05:13:04;;;;;;;;;;;25.80;44.40;;;;;;5051418;28;20381;-62
2022/08/06 05:15:33;;;;;;;;;;;25.80;44.40;;;;;;5049857;28;19920;-62
2022/08/06 05:17:59;;;;;;;;;;;25.70;44.40;;;;;;5048627;28;19936;-62
2022/08/06 05:20:24;;;;;;;;;;;25.70;44.40;;;;;;5050985;28;19925;-62
2022/08/06 05:22:52;;;;;;;;;;;25.70;44.30;;;;;;5050909;28;19920;-62
2022/08/06 05:25:17;;;;;;;;;;;25.70;44.20;;;;;;5050286;28;19924;-62
2022/08/06 05:27:43;;;;;;;;;;;25.70;44.30;;;;;;5049589;28;19909;-61
2022/08/06 05:30:09;;;;;;;;;;;25.70;44.30;;;;;;5049238;28;19913;-62
2022/08/06 05:32:48;;;;;;;;;;;25.70;44.20;;;;;;5051243;28;20043;-62
2022/08/06 05:35:13;;;;;;;;;;;25.70;44.20;;;;;;5045547;28;19967;-62
2022/08/06 05:37:39;;;;;;;;;;;25.80;44.20;;;;;;5047768;28;19920;-62
2022/08/06 05:40:05;;;;;;;;;;;25.80;44.10;;;;;;5050139;28;19912;-62
2022/08/06 05:42:30;;;;;;;;;;;25.80;44.10;;;;;;5050855;28;19913;-62
2022/08/06 05:44:56;;;;;;;;;;;25.70;44.10;;;;;;5050568;28;20430;-62
2022/08/06 05:47:23;;;;;;;;;;;25.70;44.20;;;;;;5050477;28;19916;-62
2022/08/06 05:49:49;;;;;;;;;;;25.60;44.10;;;;;;5046951;28;19954;-62
2022/08/06 05:52:24;;;;;;;;;;;25.70;44.10;;;;;;5046004;28;19913;-62
2022/08/06 05:54:58;;;;;;;;;;;25.70;44.10;;;;;;5050113;28;20106;-62
2022/08/06 05:57:39;;;;;;;;;;;25.70;44.20;;;;;;5047133;28;19917;-62
2022/08/06 06:00:10;;;;;;;;;;;25.60;44.30;;;;;;5047417;28;19919;-62
2022/08/06 06:02:41;;;;;;;;;;;25.60;44.30;;;;;;5057114;28;20395;-62
2022/08/06 06:05:06;;;;;;;;;;;25.60;44.20;;;;;;5044547;28;20376;-62
2022/08/06 06:07:32;;;;;;;;;;;25.60;44.20;;;;;;5045314;28;19970;-62
2022/08/06 06:09:57;;;;;;;;;;;25.60;44.20;;;;;;5043916;28;20308;-62
2022/08/06 06:12:23;;;;;;;;;;;25.60;44.30;;;;;;5046015;28;19920;-62
2022/08/06 06:14:48;;;;;;;;;;;25.60;44.30;;;;;;5051256;28;19925;-62
2022/08/06 06:17:17;;;;;;;;;;;25.60;44.30;;;;;;5050781;28;19943;-62
2022/08/06 06:19:42;;;;;;;;;;;25.60;44.30;;;;;;5053726;28;20369;-62
2022/08/06 06:22:17;;;;;;;;;;;25.60;44.30;;;;;;5046552;28;19917;-62
2022/08/06 06:24:46;;;;;;;;;;;25.60;44.30;;;;;;5051111;28;20349;-62
2022/08/06 06:27:15;;;;;;;;;;;25.50;44.30;;;;;;5045970;28;19913;-62
2022/08/06 06:29:47;;;;;;;;;;;25.50;44.20;;;;;;5050995;28;20444;-62
2022/08/06 06:32:17;;;;;;;;;;;25.50;44.30;;;;;;5048556;28;19924;-62
2022/08/06 06:34:48;;;;;;;;;;;25.50;44.20;;;;;;5050978;28;20098;-61
2022/08/06 06:37:32;;;;;;;;;;;25.50;44.30;;;;;;5051682;28;20411;-62
2022/08/06 06:40:10;;;;;;;;;;;25.50;44.20;;;;;;5045459;28;19921;-62
2022/08/06 06:42:38;;;;;;;;;;;25.50;44.10;;;;;;5049808;28;19921;-62
2022/08/06 06:45:17;;;;;;;;;;;25.60;44.20;;;;;;5049641;28;20353;-62
2022/08/06 06:47:55;;;;;;;;;;;25.50;44.10;;;;;;5050409;28;19996;-61
2022/08/06 06:50:21;;;;;;;;;;;25.50;44.10;;;;;;5052216;28;19913;-62
2022/08/06 06:52:48;;;;;;;;;;;25.50;44.10;;;;;;5047074;28;19917;-61
2022/08/06 06:55:18;;;;;;;;;;;25.50;44.20;;;;;;5051872;28;19913;-62
2022/08/06 06:57:44;;;;;;;;;;;25.50;44.20;;;;;;5044665;28;20392;-62
2022/08/06 07:00:09;;;;;;;;;;;25.50;44.00;;;;;;5048686;28;19959;-62
2022/08/06 07:02:35;;;;;;;;;;;25.50;44.10;;;;;;5048688;28;19968;-62
2022/08/06 07:05:04;;;;;;;;;;;25.50;44.10;;;;;;5048473;28;19909;-62
2022/08/06 07:07:33;;;;;;;;;;;25.50;44.20;;;;;;5045173;28;19999;-62
2022/08/06 07:09:59;;;;;;;;;;;25.50;44.20;;;;;;5049064;28;20007;-62
2022/08/06 07:12:24;;;;;;;;;;;25.40;44.20;;;;;;5042405;28;19921;-61
2022/08/06 07:14:50;;;;;;;;;;;25.40;44.40;;;;;;5044397;28;19921;-61
2022/08/06 07:17:18;;;;;;;;;;;25.40;44.30;;;;;;5049584;28;20376;-62
2022/08/06 07:19:45;;;;;;;;;;;25.40;44.20;;;;;;5045373;28;19917;-62
2022/08/06 07:22:11;;;;;;;;;;;25.50;44.20;;;;;;5048496;28;19912;-62
2022/08/06 07:24:37;;;;;;;;;;;25.40;44.30;;;;;;5049275;28;20429;-62
2022/08/06 07:27:02;;;;;;;;;;;25.50;44.30;;;;;;5050772;28;19920;-62
2022/08/06 07:29:27;;;;;;;;;;;25.50;44.30;;;;;;5044863;28;20364;-62
2022/08/06 07:31:54;;;;;;;;;;;25.50;44.10;;;;;;5044351;28;19921;-62
2022/08/06 07:34:19;;;;;;;;;;;25.50;44.20;;;;;;5045270;28;20004;-61
2022/08/06 07:36:46;;;;;;;;;;;25.50;44.20;;;;;;5067421;28;19928;-61
2022/08/06 07:39:13;;;;;;;;;;;25.50;44.30;;;;;;5049389;28;20019;-62
2022/08/06 07:41:38;;;;;;;;;;;25.50;44.30;;;;;;5047121;28;20394;-62
2022/08/06 07:44:05;;;;;;;;;;;25.50;44.40;;;;;;5049295;28;19999;-62
2022/08/06 07:46:41;;;;;;;;;;;25.50;44.30;;;;;;5044947;28;19920;-61
2022/08/06 07:49:06;;;;;;;;;;;25.50;44.50;;;;;;5050115;28;20265;-62
2022/08/06 07:51:33;;;;;;;;;;;25.50;44.40;;;;;;5044689;28;19973;-62
2022/08/06 07:53:59;;;;;;;;;;;25.50;44.30;;;;;;5046611;28;19965;-61
2022/08/06 07:56:25;;;;;;;;;;;25.50;44.30;;;;;;5047621;28;20400;-62
2022/08/06 07:58:50;;;;;;;;;;;25.50;44.30;;;;;;5046396;28;20404;-62
2022/08/06 08:01:15;;;;;;;;;;;25.50;44.40;;;;;;5045991;28;20015;-62
2022/08/06 08:06:25;;;;;;;;;;;25.40;44.40;;;;;;5060566;28;20320;-62
2022/08/06 08:09:02;;;;;;;;;;;25.50;44.60;;;;;;5050281;28;19913;-62
2022/08/06 08:11:27;;;;;;;;;;;25.50;44.60;;;;;;5048665;28;19916;-62
2022/08/06 08:13:53;;;;;;;;;;;25.50;44.50;;;;;;5050792;28;19921;-61
2022/08/06 08:16:18;;;;;;;;;;;25.50;44.50;;;;;;5044990;28;19924;-62
2022/08/06 08:18:44;;;;;;;;;;;25.50;44.30;;;;;;5041834;28;19916;-62
2022/08/06 08:21:10;;;;;;;;;;;25.50;44.40;;;;;;5043532;28;20152;-62
2022/08/06 08:23:36;;;;;;;;;;;25.50;44.30;;;;;;5025375;28;20019;-62
2022/08/06 08:26:02;;;;;;;;;;;25.50;44.30;;;;;;5042128;28;19966;-62
2022/08/06 08:28:28;;;;;;;;;;;25.50;44.10;;;;;;5041879;28;20332;-62
2022/08/06 08:30:56;;;;;;;;;;;25.50;44.00;;;;;;5043708;28;19955;-62
2022/08/06 08:33:21;;;;;;;;;;;25.50;43.80;;;;;;5048039;28;19909;-62
2022/08/06 08:35:47;;;;;;;;;;;25.50;43.80;;;;;;5021045;28;19928;-62
2022/08/06 08:38:12;;;;;;;;;;;25.50;43.50;;;;;;5042679;28;19944;-62
2022/08/06 08:40:38;;;;;;;;;;;25.60;43.40;;;;;;5047021;28;20384;-62
2022/08/06 08:43:03;;;;;;;;;;;25.60;43.40;;;;;;5048822;28;20396;-62
2022/08/06 08:45:29;;;;;;;;;;;25.60;43.30;;;;;;5049718;28;20350;-62
2022/08/06 08:47:54;;;;;;;;;;;25.50;43.40;;;;;;5050794;28;19913;-62
2022/08/06 08:50:20;;;;;;;;;;;25.50;43.40;;;;;;5045313;28;19913;-62
2022/08/06 08:52:47;;;;;;;;;;;25.50;43.20;;;;;;5038680;28;19971;-62
2022/08/06 08:55:13;;;;;;;;;;;25.50;43.10;;;;;;5042586;28;19967;-62
2022/08/06 08:57:38;;;;;;;;;;;25.60;43.00;;;;;;5035483;28;19917;-61
2022/08/06 09:00:04;;;;;;;;;;;25.60;42.80;;;;;;5048987;28;19919;-62
2022/08/06 09:02:30;;;;;;;;;;;25.60;42.90;;;;;;5049814;28;19912;-62
2022/08/06 09:04:55;;;;;;;;;;;25.60;43.00;;;;;;5049915;28;20015;-62
2022/08/06 09:07:21;;;;;;;;;;;25.60;42.90;;;;;;5048492;28;20387;-62
2022/08/06 09:09:46;;;;;;;;;;;25.60;43.00;;;;;;5039945;28;19924;-61
2022/08/06 09:12:12;;;;;;;;;;;25.60;42.80;;;;;;5046838;28;19939;-62
2022/08/06 09:14:37;;;;;;;;;;;25.60;42.70;;;;;;5048539;28;19921;-61
2022/08/06 09:17:03;;;;;;;;;;;25.60;42.80;;;;;;5045422;28;19917;-62
2022/08/06 09:19:29;;;;;;;;;;;25.60;43.20;;;;;;5048956;28;20300;-62
2022/08/06 09:21:57;;;;;;;;;;;25.50;43.00;;;;;;5048150;28;19924;-62
2022/08/06 09:24:23;;;;;;;;;;;25.50;42.90;;;;;;5048992;28;19913;-62
2022/08/06 09:27:01;;;;;;;;;;;25.60;42.90;;;;;;5043905;28;19924;-62
2022/08/06 09:29:27;;;;;;;;;;;25.60;43.10;;;;;;5049953;28;20061;-62
2022/08/06 09:31:52;;;;;;;;;;;25.60;43.00;;;;;;5050444;28;19913;-62
2022/08/06 09:34:18;;;;;;;;;;;25.60;42.60;;;;;;5049442;28;19934;-62
2022/08/06 09:36:44;;;;;;;;;;;25.60;42.90;;;;;;5046352;28;20023;-62
2022/08/06 09:39:09;;;;;;;;;;;25.60;42.80;;;;;;5045896;28;19965;-62
2022/08/06 09:41:39;;;;;;;;;;;25.60;42.30;;;;;;5048708;28;20003;-62
2022/08/06 09:44:09;;;;;;;;;;;25.60;42.50;;;;;;5043623;28;20466;-62
2022/08/06 09:46:37;;;;;;;;;;;25.60;42.40;;;;;;5051929;28;19909;-62
2022/08/06 09:49:03;;;;;;;;;;;25.60;42.30;;;;;;5044198;28;20377;-62
2022/08/06 09:51:29;;;;;;;;;;;25.60;42.40;;;;;;5042868;28;19983;-62
2022/08/06 09:53:55;;;;;;;;;;;25.60;42.20;;;;;;5051995;28;20002;-62
2022/08/06 09:56:21;;;;;;;;;;;25.60;42.00;;;;;;5052970;28;20272;-62
2022/08/06 09:58:46;;;;;;;;;;;25.60;41.90;;;;;;5048559;28;19917;-61
2022/08/06 10:01:15;;;;;;;;;;;25.60;42.10;;;;;;5041844;28;19923;-62
2022/08/06 10:03:40;;;;;;;;;;;25.60;42.10;;;;;;5042640;28;20316;-62
2022/08/06 10:06:07;;;;;;;;;;;25.70;42.30;;;;;;5048462;28;19964;-62
2022/08/06 10:08:33;;;;;;;;;;;25.70;42.10;;;;;;5046011;28;19955;-62
2022/08/06 10:11:02;;;;;;;;;;;25.70;41.60;;;;;;5048599;28;19953;-62
2022/08/06 10:13:28;;;;;;;;;;;25.80;41.40;;;;;;5047492;28;19921;-62
2022/08/06 10:15:54;;;;;;;;;;;25.70;41.20;;;;;;5049747;28;19984;-61
2022/08/06 10:18:39;;;;;;;;;;;25.70;40.90;;;;;;5053907;28;19908;-61
2022/08/06 10:21:05;;;;;;;;;;;25.80;40.90;;;;;;5054121;28;19940;-61
2022/08/06 10:23:32;;;;;;;;;;;25.80;40.90;;;;;;5049729;28;19916;-62
2022/08/06 10:25:57;;;;;;;;;;;25.80;41.30;;;;;;5052513;28;19913;-62
2022/08/06 10:28:23;;;;;;;;;;;25.80;41.20;;;;;;5047173;28;19939;-61
2022/08/06 10:30:49;;;;;;;;;;;25.80;41.40;;;;;;5042921;28;19913;-61
2022/08/06 10:33:14;;;;;;;;;;;25.80;41.60;;;;;;5047003;28;19913;-61
2022/08/06 10:35:40;;;;;;;;;;;25.70;41.60;;;;;;5043258;28;19920;-61
2022/08/06 10:38:05;;;;;;;;;;;25.70;41.60;;;;;;5044180;28;19955;-61
2022/08/06 10:40:31;;;;;;;;;;;25.70;41.60;;;;;;5043143;28;20357;-61
2022/08/06 10:42:58;;;;;;;;;;;25.80;41.50;;;;;;5039937;28;19917;-61
2022/08/06 10:45:23;;;;;;;;;;;25.70;41.00;;;;;;5045235;28;20000;-61
2022/08/06 10:47:49;;;;;;;;;;;25.70;40.70;;;;;;5043298;28;20007;-61
2022/08/06 10:50:14;;;;;;;;;;;25.70;40.90;;;;;;5045971;28;19931;-61
2022/08/06 10:52:40;;;;;;;;;;;25.70;40.40;;;;;;5044384;28;20004;-61
2022/08/06 10:55:05;;;;;;;;;;;25.70;40.70;;;;;;5044807;28;19927;-61
2022/08/06 10:57:32;;;;;;;;;;;25.70;40.90;;;;;;5043992;28;20357;-61
2022/08/06 10:59:58;;;;;;;;;;;25.80;40.70;;;;;;5042157;28;19917;-61
2022/08/06 11:02:23;;;;;;;;;;;25.80;40.60;;;;;;5045824;28;19912;-61
2022/08/06 11:04:52;;;;;;;;;;;25.80;40.60;;;;;;5041251;28;19919;-61
2022/08/06 11:07:39;;;;;;;;;;;25.80;40.60;;;;;;5044823;28;19917;-61
2022/08/06 11:10:14;;;;;;;;;;;25.80;40.40;;;;;;5043142;28;20292;-60
2022/08/06 11:12:45;;;;;;;;;;;25.80;40.30;;;;;;5040163;28;21292;-61
2022/08/06 11:15:11;;;;;;;;;;;25.80;40.10;;;;;;5043735;28;19960;-61
2022/08/06 11:17:50;;;;;;;;;;;25.80;40.30;;;;;;5042716;28;19991;-62
2022/08/06 11:20:36;;;;;;;;;;;25.80;40.20;;;;;;5053213;28;19912;-61
2022/08/06 11:23:05;;;;;;;;;;;25.80;40.20;;;;;;5049771;28;19924;-61
2022/08/06 11:25:37;;;;;;;;;;;25.80;40.20;;;;;;5047175;28;19913;-61
2022/08/06 11:28:04;;;;;;;;;;;25.80;40.20;;;;;;5048651;28;20007;-61
2022/08/06 11:30:36;;;;;;;;;;;25.80;39.80;;;;;;5050719;28;20008;-61
2022/08/06 11:33:02;;;;;;;;;;;25.80;40.10;;;;;;5045075;28;19948;-61
2022/08/06 11:35:33;;;;;;;;;;;25.90;40.50;;;;;;5044539;28;19920;-61
2022/08/06 11:37:59;;;;;;;;;;;25.80;40.00;;;;;;5049510;28;19976;-61
2022/08/06 11:40:24;;;;;;;;;;;25.90;39.90;;;;;;5049768;28;20385;-61
2022/08/06 11:42:50;;;;;;;;;;;26.00;39.80;;;;;;5050512;28;19960;-61
2022/08/06 11:45:15;;;;;;;;;;;25.90;39.80;;;;;;5051121;28;19966;-61
2022/08/06 11:48:00;;;;;;;;;;;25.90;39.70;;;;;;5051624;28;20420;-61
2022/08/06 11:50:25;;;;;;;;;;;25.90;39.40;;;;;;5043168;28;19925;-61
2022/08/06 11:52:51;;;;;;;;;;;25.90;39.60;;;;;;5044052;28;19917;-61
2022/08/06 11:55:16;;;;;;;;;;;25.90;39.40;;;;;;5050935;28;19954;-61
2022/08/06 11:57:43;;;;;;;;;;;25.90;39.40;;;;;;5050269;28;19946;-61
2022/08/06 12:00:14;;;;;;;;;;;25.90;39.40;;;;;;5050634;28;19920;-61
2022/08/06 12:02:39;;;;;;;;;;;25.80;39.30;;;;;;5049070;28;19919;-60
2022/08/06 12:05:14;;;;;;;;;;;25.80;39.50;;;;;;5051487;28;20376;-61
2022/08/06 12:07:40;;;;;;;;;;;25.80;39.30;;;;;;5042398;28;20658;-61
2022/08/06 12:10:06;;;;;;;;;;;25.80;39.10;;;;;;5041337;28;20401;-61
2022/08/06 12:12:32;;;;;;;;;;;25.80;39.20;;;;;;5041393;28;19964;-61
2022/08/06 12:15:00;;;;;;;;;;;25.90;39.40;;;;;;5041244;28;19929;-62
2022/08/06 12:17:26;;;;;;;;;;;25.90;39.70;;;;;;5043818;28;19917;-62
2022/08/06 12:19:52;;;;;;;;;;;25.90;39.30;;;;;;5042189;28;19913;-61
2022/08/06 12:22:19;;;;;;;;;;;25.90;39.40;;;;;;5044502;28;19912;-62
2022/08/06 12:24:45;;;;;;;;;;;25.90;39.20;;;;;;5039777;28;19952;-62
2022/08/06 12:27:11;;;;;;;;;;;25.90;39.10;;;;;;5042328;28;20372;-62
2022/08/06 12:29:36;;;;;;;;;;;25.80;38.80;;;;;;5042284;28;20354;-62
2022/08/06 12:32:18;;;;;;;;;;;25.80;38.80;;;;;;5043618;28;19917;-61
2022/08/06 12:34:44;;;;;;;;;;;25.80;38.90;;;;;;5044334;28;19913;-62
2022/08/06 12:37:09;;;;;;;;;;;25.80;38.40;;;;;;5042075;28;19944;-62
2022/08/06 12:42:23;;;;;;;;;;;25.80;38.70;;;;;;5043218;28;20289;-62
2022/08/06 12:44:49;;;;;;;;;;;25.90;38.70;;;;;;5042486;28;19912;-62
2022/08/06 12:47:14;;;;;;;;;;;25.90;38.20;;;;;;5042834;28;20329;-62
2022/08/06 12:49:40;;;;;;;;;;;25.90;38.30;;;;;;5043788;28;20376;-62
2022/08/06 12:52:18;;;;;;;;;;;25.90;38.20;;;;;;5043373;28;20132;-62
2022/08/06 12:54:44;;;;;;;;;;;25.90;37.90;;;;;;5043552;28;19921;-62
2022/08/06 12:57:22;;;;;;;;;;;25.90;37.40;;;;;;5042194;28;19954;-62
2022/08/06 12:59:48;;;;;;;;;;;25.90;37.70;;;;;;5042419;28;19916;-62
2022/08/06 13:02:14;;;;;;;;;;;25.90;37.60;;;;;;5042744;28;19921;-62
2022/08/06 13:04:51;;;;;;;;;;;26.00;37.00;;;;;;5040328;28;19913;-62
2022/08/06 13:07:17;;;;;;;;;;;26.00;36.90;;;;;;5041858;28;19924;-62
2022/08/06 13:09:43;;;;;;;;;;;26.00;36.90;;;;;;5042422;28;19913;-62
2022/08/06 13:12:15;;;;;;;;;;;26.00;37.20;;;;;;5043558;28;19912;-62
2022/08/06 13:14:47;;;;;;;;;;;26.10;36.70;;;;;;5041624;28;19936;-62
2022/08/06 13:17:13;;;;;;;;;;;26.10;36.30;;;;;;5043722;28;20301;-62
2022/08/06 13:19:49;;;;;;;;;;;26.10;36.50;;;;;;5044184;28;19919;-62
2022/08/06 13:22:15;;;;;;;;;;;26.10;36.30;;;;;;5046788;28;19960;-62
2022/08/06 13:24:40;;;;;;;;;;;26.10;35.80;;;;;;5046802;28;20005;-62
2022/08/06 13:27:06;;;;;;;;;;;26.10;35.80;;;;;;5045288;28;19916;-62
2022/08/06 13:29:31;;;;;;;;;;;26.10;35.50;;;;;;5047916;28;19924;-62
2022/08/06 13:32:06;;;;;;;;;;;26.10;35.40;;;;;;5045952;28;19923;-62
2022/08/06 13:34:45;;;;;;;;;;;26.10;35.50;;;;;;5040895;28;19917;-62
2022/08/06 13:37:10;;;;;;;;;;;26.20;35.80;;;;;;5046454;28;19939;-62
2022/08/06 13:39:36;;;;;;;;;;;26.20;35.60;;;;;;5047357;28;19916;-62
2022/08/06 13:42:05;;;;;;;;;;;26.20;35.90;;;;;;5045093;28;19995;-62
2022/08/06 13:44:31;;;;;;;;;;;26.20;35.60;;;;;;5047273;28;19913;-62
2022/08/06 13:46:57;;;;;;;;;;;26.20;36.00;;;;;;5046359;28;19921;-62
2022/08/06 13:49:22;;;;;;;;;;;26.20;35.40;;;;;;5046765;28;19917;-62
2022/08/06 13:51:48;;;;;;;;;;;26.20;35.50;;;;;;5047388;28;20024;-62
2022/08/06 13:54:13;;;;;;;;;;;26.20;35.30;;;;;;5045815;28;20439;-62
2022/08/06 13:56:39;;;;;;;;;;;26.20;35.80;;;;;;5046415;28;19916;-62
2022/08/06 13:59:04;;;;;;;;;;;26.30;35.50;;;;;;5045332;28;19913;-62
2022/08/06 14:01:30;;;;;;;;;;;26.30;36.00;;;;;;5044154;28;19926;-62
2022/08/06 14:03:55;;;;;;;;;;;26.30;35.80;;;;;;5043993;28;19966;-62
2022/08/06 14:06:21;;;;;;;;;;;26.30;35.80;;;;;;5046718;28;19946;-62
2022/08/06 14:08:46;;;;;;;;;;;26.30;36.20;;;;;;5046580;28;19921;-62
2022/08/06 14:11:12;;;;;;;;;;;26.30;36.00;;;;;;5042075;28;19921;-62
2022/08/06 14:13:37;;;;;;;;;;;26.30;35.70;;;;;;5045695;28;20375;-62
2022/08/06 14:16:03;;;;;;;;;;;26.30;36.10;;;;;;5042847;28;19916;-62
2022/08/06 14:18:29;;;;;;;;;;;26.30;36.30;;;;;;5043437;28;19971;-62
2022/08/06 14:20:54;;;;;;;;;;;26.30;36.40;;;;;;5043720;28;19975;-62
2022/08/06 14:23:20;;;;;;;;;;;26.30;36.40;;;;;;5047052;28;19917;-62